sensor_id;sensor_type;location;lat;lon;timestamp;pressure;altitude;pressure_sealevel;temperature;humidity
7264;BME280;3673;52.480;13.348;2023-08-08T00:00:52;100530.63;;;18.80;50.32
7264;BME280;3673;52.480;13.348;2023-08-08T00:03:20;100507.91;;;18.25;51.58
7264;BME280;3673;52.480;13.348;2023-08-08T00:05:46;100523.75;;;18.51;51.29
7264;BME280;3673;52.480;13.348;2023-08-08T00:08:14;100520.25;;;18.74;50.78
7264;BME280;3673;52.480;13.348;2023-08-08T00:10:42;100525.81;;;18.41;51.43
7264;BME280;3673;52.480;13.348;2023-08-08T00:13:09;100508.72;;;18.27;51.75
7264;BME280;3673;52.480;13.348;2023-08-08T00:15:36;100516.16;;;18.40;51.79
7264;BME280;3673;52.480;13.348;2023-08-08T00:18:04;100497.25;;;18.26;52.04
7264;BME280;3673;52.480;13.348;2023-08-08T00:20:31;100514.16;;;18.47;51.63
7264;BME280;3673;52.480;13.348;2023-08-08T00:22:58;100520.59;;;18.40;51.94
7264;BME280;3673;52.480;13.348;2023-08-08T00:25:26;100513.41;;;18.19;52.38
7264;BME280;3673;52.480;13.348;2023-08-08T00:27:53;100514.06;;;18.25;52.08
7264;BME280;3673;52.480;13.348;2023-08-08T00:30:20;100510.34;;;18.31;51.98
7264;BME280;3673;52.480;13.348;2023-08-08T00:32:47;100516.97;;;17.93;52.50
7264;BME280;3673;52.480;13.348;2023-08-08T00:35:14;100520.53;;;17.92;53.03
7264;BME280;3673;52.480;13.348;2023-08-08T00:37:41;100518.13;;;18.11;52.21
7264;BME280;3673;52.480;13.348;2023-08-08T00:40:10;100525.69;;;17.96;52.46
7264;BME280;3673;52.480;13.348;2023-08-08T00:42:38;100524.94;;;17.93;52.85
7264;BME280;3673;52.480;13.348;2023-08-08T00:45:06;100524.09;;;17.66;53.10
7264;BME280;3673;52.480;13.348;2023-08-08T00:47:34;100537.44;;;18.14;52.18
7264;BME280;3673;52.480;13.348;2023-08-08T00:50:02;100532.81;;;18.19;51.73
7264;BME280;3673;52.480;13.348;2023-08-08T00:52:29;100524.59;;;18.02;52.29
7264;BME280;3673;52.480;13.348;2023-08-08T00:54:56;100541.78;;;18.15;51.69
7264;BME280;3673;52.480;13.348;2023-08-08T00:57:23;100532.31;;;18.08;51.70
7264;BME280;3673;52.480;13.348;2023-08-08T00:59:52;100535.84;;;18.09;51.77
7264;BME280;3673;52.480;13.348;2023-08-08T01:02:19;100540.38;;;18.05;51.61
7264;BME280;3673;52.480;13.348;2023-08-08T01:04:46;100532.97;;;18.15;51.72
7264;BME280;3673;52.480;13.348;2023-08-08T01:07:22;100550.66;;;18.14;51.37
7264;BME280;3673;52.480;13.348;2023-08-08T01:09:57;100527.91;;;18.09;51.66
7264;BME280;3673;52.480;13.348;2023-08-08T01:12:27;100536.22;;;17.72;52.04
7264;BME280;3673;52.480;13.348;2023-08-08T01:14:56;100526.13;;;17.84;52.01
7264;BME280;3673;52.480;13.348;2023-08-08T01:17:24;100528.84;;;18.08;51.27
7264;BME280;3673;52.480;13.348;2023-08-08T01:19:51;100529.53;;;17.88;51.89
7264;BME280;3673;52.480;13.348;2023-08-08T01:22:32;100539.03;;;17.93;51.72
7264;BME280;3673;52.480;13.348;2023-08-08T01:25:04;100537.44;;;18.14;51.29
7264;BME280;3673;52.480;13.348;2023-08-08T01:27:32;100532.25;;;17.85;51.58
7264;BME280;3673;52.480;13.348;2023-08-08T01:29:59;100530.97;;;17.96;51.04
7264;BME280;3673;52.480;13.348;2023-08-08T01:32:25;100533.88;;;17.89;51.04
7264;BME280;3673;52.480;13.348;2023-08-08T01:34:52;100541.03;;;17.61;51.93
7264;BME280;3673;52.480;13.348;2023-08-08T01:37:24;100530.94;;;17.72;51.81
7264;BME280;3673;52.480;13.348;2023-08-08T01:39:56;100536.22;;;17.72;51.50
7264;BME280;3673;52.480;13.348;2023-08-08T01:42:26;100522.50;;;17.87;50.98
7264;BME280;3673;52.480;13.348;2023-08-08T01:44:54;100528.81;;;17.83;50.95
7264;BME280;3673;52.480;13.348;2023-08-08T01:47:22;100531.47;;;17.57;51.36
7264;BME280;3673;52.480;13.348;2023-08-08T01:49:49;100526.91;;;17.86;50.96
7264;BME280;3673;52.480;13.348;2023-08-08T01:52:16;100521.44;;;17.66;51.32
7264;BME280;3673;52.480;13.348;2023-08-08T01:54:43;100521.97;;;17.49;51.41
7264;BME280;3673;52.480;13.348;2023-08-08T01:57:10;100515.53;;;17.84;50.62
7264;BME280;3673;52.480;13.348;2023-08-08T01:59:38;100522.88;;;17.48;51.41
7264;BME280;3673;52.480;13.348;2023-08-08T02:02:05;100520.47;;;17.69;50.65
7264;BME280;3673;52.480;13.348;2023-08-08T02:04:33;100520.75;;;17.86;50.29
7264;BME280;3673;52.480;13.348;2023-08-08T02:06:59;100510.44;;;17.78;50.46
7264;BME280;3673;52.480;13.348;2023-08-08T02:09:26;100509.38;;;17.58;51.25
7264;BME280;3673;52.480;13.348;2023-08-08T02:11:53;100519.66;;;17.67;50.42
7264;BME280;3673;52.480;13.348;2023-08-08T02:14:20;100512.16;;;17.53;51.00
7264;BME280;3673;52.480;13.348;2023-08-08T02:16:48;100505.81;;;17.59;50.74
7264;BME280;3673;52.480;13.348;2023-08-08T02:19:15;100504.78;;;17.63;50.73
7264;BME280;3673;52.480;13.348;2023-08-08T02:21:41;100499.91;;;17.23;51.89
7264;BME280;3673;52.480;13.348;2023-08-08T02:24:08;100495.41;;;17.52;51.11
7264;BME280;3673;52.480;13.348;2023-08-08T02:26:35;100495.88;;;17.65;51.27
7264;BME280;3673;52.480;13.348;2023-08-08T02:29:02;100499.56;;;17.33;51.82
7264;BME280;3673;52.480;13.348;2023-08-08T02:31:28;100492.53;;;17.60;51.55
7264;BME280;3673;52.480;13.348;2023-08-08T02:33:56;100497.81;;;17.86;50.89
7264;BME280;3673;52.480;13.348;2023-08-08T02:36:23;100501.94;;;17.69;51.35
7264;BME280;3673;52.480;13.348;2023-08-08T02:38:50;100483.41;;;17.69;51.73
7264;BME280;3673;52.480;13.348;2023-08-08T02:41:19;100500.00;;;17.47;52.36
7264;BME280;3673;52.480;13.348;2023-08-08T02:43:45;100489.00;;;17.33;52.94
7264;BME280;3673;52.480;13.348;2023-08-08T02:46:12;100492.34;;;17.66;52.06
7264;BME280;3673;52.480;13.348;2023-08-08T02:48:39;100494.72;;;17.47;53.01
7264;BME280;3673;52.480;13.348;2023-08-08T02:51:07;100491.72;;;17.58;52.75
7264;BME280;3673;52.480;13.348;2023-08-08T02:53:34;100489.84;;;17.62;52.77
7264;BME280;3673;52.480;13.348;2023-08-08T02:56:01;100498.59;;;17.64;52.79
7264;BME280;3673;52.480;13.348;2023-08-08T02:58:27;100494.59;;;17.50;53.14
7264;BME280;3673;52.480;13.348;2023-08-08T03:00:54;100491.88;;;17.52;53.30
7264;BME280;3673;52.480;13.348;2023-08-08T03:03:21;100502.44;;;17.80;52.66
7264;BME280;3673;52.480;13.348;2023-08-08T03:05:48;100509.38;;;17.30;53.88
7264;BME280;3673;52.480;13.348;2023-08-08T03:08:16;100503.81;;;17.65;53.18
7264;BME280;3673;52.480;13.348;2023-08-08T03:10:42;100493.94;;;17.44;53.73
7264;BME280;3673;52.480;13.348;2023-08-08T03:13:09;100491.75;;;17.83;52.67
7264;BME280;3673;52.480;13.348;2023-08-08T03:15:36;100490.34;;;17.73;53.05
7264;BME280;3673;52.480;13.348;2023-08-08T03:18:04;100480.53;;;17.48;53.54
7264;BME280;3673;52.480;13.348;2023-08-08T03:20:30;100482.50;;;17.43;53.94
7264;BME280;3673;52.480;13.348;2023-08-08T03:22:57;100488.50;;;17.75;53.16
7264;BME280;3673;52.480;13.348;2023-08-08T03:25:25;100489.84;;;17.62;53.46
7264;BME280;3673;52.480;13.348;2023-08-08T03:27:52;100493.28;;;17.37;54.20
7264;BME280;3673;52.480;13.348;2023-08-08T03:30:19;100490.22;;;17.49;53.86
7264;BME280;3673;52.480;13.348;2023-08-08T03:32:46;100500.47;;;17.32;54.39
7264;BME280;3673;52.480;13.348;2023-08-08T03:35:13;100504.69;;;17.66;53.44
7264;BME280;3673;52.480;13.348;2023-08-08T03:37:40;100490.47;;;17.42;54.40
7264;BME280;3673;52.480;13.348;2023-08-08T03:40:07;100497.69;;;17.37;54.43
7264;BME280;3673;52.480;13.348;2023-08-08T03:42:36;100493.75;;;17.22;54.90
7264;BME280;3673;52.480;13.348;2023-08-08T03:45:03;100503.31;;;17.26;54.92
7264;BME280;3673;52.480;13.348;2023-08-08T03:47:30;100488.47;;;17.48;54.44
7264;BME280;3673;52.480;13.348;2023-08-08T03:49:57;100491.47;;;17.66;53.96
7264;BME280;3673;52.480;13.348;2023-08-08T03:52:24;100492.97;;;17.46;54.50
7264;BME280;3673;52.480;13.348;2023-08-08T03:54:51;100492.53;;;17.60;54.23
7264;BME280;3673;52.480;13.348;2023-08-08T03:57:18;100506.94;;;17.78;53.87
7264;BME280;3673;52.480;13.348;2023-08-08T03:59:46;100511.09;;;17.59;54.33
7264;BME280;3673;52.480;13.348;2023-08-08T04:02:13;100503.56;;;17.73;54.35
7264;BME280;3673;52.480;13.348;2023-08-08T04:04:40;100501.91;;;17.70;54.08
7264;BME280;3673;52.480;13.348;2023-08-08T04:07:07;100510.16;;;17.86;53.63
7264;BME280;3673;52.480;13.348;2023-08-08T04:09:33;100502.28;;;17.58;54.87
7264;BME280;3673;52.480;13.348;2023-08-08T04:12:00;100506.94;;;17.78;54.04
7264;BME280;3673;52.480;13.348;2023-08-08T04:14:27;100489.72;;;17.91;53.93
7264;BME280;3673;52.480;13.348;2023-08-08T04:16:55;100495.31;;;17.82;54.11
7264;BME280;3673;52.480;13.348;2023-08-08T04:19:22;100493.53;;;17.82;54.13
7264;BME280;3673;52.480;13.348;2023-08-08T04:21:49;100490.78;;;17.61;54.67
7264;BME280;3673;52.480;13.348;2023-08-08T04:24:16;100500.09;;;17.44;55.25
7264;BME280;3673;52.480;13.348;2023-08-08T04:26:42;100487.25;;;17.60;54.73
7264;BME280;3673;52.480;13.348;2023-08-08T04:29:09;100497.03;;;17.30;55.79
7264;BME280;3673;52.480;13.348;2023-08-08T04:31:36;100496.66;;;17.69;54.87
7264;BME280;3673;52.480;13.348;2023-08-08T04:34:04;100488.66;;;17.70;54.93
7264;BME280;3673;52.480;13.348;2023-08-08T04:36:31;100497.91;;;18.08;53.99
7264;BME280;3673;52.480;13.348;2023-08-08T04:38:57;100491.09;;;17.76;54.39
7264;BME280;3673;52.480;13.348;2023-08-08T04:41:24;100485.16;;;18.19;53.76
7264;BME280;3673;52.480;13.348;2023-08-08T04:43:51;100496.56;;;17.96;53.77
7264;BME280;3673;52.480;13.348;2023-08-08T04:46:18;100497.75;;;17.62;54.81
7264;BME280;3673;52.480;13.348;2023-08-08T04:48:44;100497.91;;;18.33;53.44
7264;BME280;3673;52.480;13.348;2023-08-08T04:51:12;100500.78;;;18.27;53.37
7264;BME280;3673;52.480;13.348;2023-08-08T04:53:39;100498.13;;;18.02;53.74
7264;BME280;3673;52.480;13.348;2023-08-08T04:56:12;100499.53;;;18.12;53.92
7264;BME280;3673;52.480;13.348;2023-08-08T04:58:47;100498.47;;;17.93;54.24
7264;BME280;3673;52.480;13.348;2023-08-08T05:01:13;100487.75;;;18.21;53.55
7264;BME280;3673;52.480;13.348;2023-08-08T05:03:43;100492.31;;;18.40;53.41
7264;BME280;3673;52.480;13.348;2023-08-08T05:06:09;100486.78;;;18.23;53.64
7264;BME280;3673;52.480;13.348;2023-08-08T05:08:37;100488.56;;;18.23;53.32
7264;BME280;3673;52.480;13.348;2023-08-08T05:11:04;100486.97;;;18.42;53.33
7264;BME280;3673;52.480;13.348;2023-08-08T05:13:31;100486.34;;;18.59;52.99
7264;BME280;3673;52.480;13.348;2023-08-08T05:15:58;100493.94;;;18.44;53.18
7264;BME280;3673;52.480;13.348;2023-08-08T05:18:24;100486.47;;;17.83;54.86
7264;BME280;3673;52.480;13.348;2023-08-08T05:20:51;100491.09;;;18.26;54.04
7264;BME280;3673;52.480;13.348;2023-08-08T05:23:18;100490.19;;;18.27;53.61
7264;BME280;3673;52.480;13.348;2023-08-08T05:25:47;100489.84;;;17.88;54.57
7264;BME280;3673;52.480;13.348;2023-08-08T05:28:13;100492.72;;;18.30;53.84
7264;BME280;3673;52.480;13.348;2023-08-08T05:30:40;100487.97;;;18.63;52.67
7264;BME280;3673;52.480;13.348;2023-08-08T05:33:07;100491.00;;;18.04;53.98
7264;BME280;3673;52.480;13.348;2023-08-08T05:35:34;100469.16;;;18.70;52.91
7264;BME280;3673;52.480;13.348;2023-08-08T05:38:01;100485.19;;;18.89;52.28
7264;BME280;3673;52.480;13.348;2023-08-08T05:40:28;100491.50;;;18.63;53.04
7264;BME280;3673;52.480;13.348;2023-08-08T05:42:56;100490.16;;;18.51;53.66
7264;BME280;3673;52.480;13.348;2023-08-08T05:45:22;100481.69;;;19.10;52.56
7264;BME280;3673;52.480;13.348;2023-08-08T05:47:49;100490.09;;;18.76;52.92
7264;BME280;3673;52.480;13.348;2023-08-08T05:50:16;100484.72;;;19.01;52.38
7264;BME280;3673;52.480;13.348;2023-08-08T05:52:43;100490.88;;;19.23;51.84
7264;BME280;3673;52.480;13.348;2023-08-08T05:55:09;100489.63;;;18.88;52.93
7264;BME280;3673;52.480;13.348;2023-08-08T05:57:36;100473.88;;;18.62;53.41
7264;BME280;3673;52.480;13.348;2023-08-08T06:00:06;100487.09;;;18.85;53.10
7264;BME280;3673;52.480;13.348;2023-08-08T06:02:36;100490.75;;;19.26;52.00
7264;BME280;3673;52.480;13.348;2023-08-08T06:05:04;100496.88;;;19.07;52.60
7264;BME280;3673;52.480;13.348;2023-08-08T06:07:31;100495.88;;;19.31;52.05
7264;BME280;3673;52.480;13.348;2023-08-08T06:09:58;100496.75;;;19.53;51.59
7264;BME280;3673;52.480;13.348;2023-08-08T06:12:25;100504.19;;;19.22;52.30
7264;BME280;3673;52.480;13.348;2023-08-08T06:14:51;100494.78;;;19.15;52.47
7264;BME280;3673;52.480;13.348;2023-08-08T06:17:20;100500.19;;;19.33;52.12
7264;BME280;3673;52.480;13.348;2023-08-08T06:19:49;100491.13;;;19.39;52.24
7264;BME280;3673;52.480;13.348;2023-08-08T06:22:16;100505.31;;;19.81;51.44
7264;BME280;3673;52.480;13.348;2023-08-08T06:24:42;100505.41;;;19.78;51.42
7264;BME280;3673;52.480;13.348;2023-08-08T06:27:10;100506.47;;;19.54;51.63
7264;BME280;3673;52.480;13.348;2023-08-08T06:29:37;100494.72;;;19.38;52.34
7264;BME280;3673;52.480;13.348;2023-08-08T06:32:04;100501.81;;;19.59;51.86
7264;BME280;3673;52.480;13.348;2023-08-08T06:34:32;100500.19;;;19.77;51.60
7264;BME280;3673;52.480;13.348;2023-08-08T06:36:59;100493.06;;;19.14;52.85
7264;BME280;3673;52.480;13.348;2023-08-08T06:39:26;100492.94;;;19.60;51.99
7264;BME280;3673;52.480;13.348;2023-08-08T06:41:52;100502.88;;;19.75;51.75
7264;BME280;3673;52.480;13.348;2023-08-08T06:44:19;100499.66;;;19.47;52.13
7264;BME280;3673;52.480;13.348;2023-08-08T06:46:46;100487.94;;;19.31;53.00
7264;BME280;3673;52.480;13.348;2023-08-08T06:49:13;100508.75;;;19.83;51.70
7264;BME280;3673;52.480;13.348;2023-08-08T06:51:41;100499.53;;;19.50;52.22
7264;BME280;3673;52.480;13.348;2023-08-08T06:54:07;100501.22;;;19.73;52.02
7264;BME280;3673;52.480;13.348;2023-08-08T06:56:34;100504.28;;;19.42;52.31
7264;BME280;3673;52.480;13.348;2023-08-08T06:59:01;100494.63;;;19.39;52.00
7264;BME280;3673;52.480;13.348;2023-08-08T07:01:27;100503.72;;;19.97;50.54
7264;BME280;3673;52.480;13.348;2023-08-08T07:03:54;100503.22;;;19.68;51.63
7264;BME280;3673;52.480;13.348;2023-08-08T07:06:21;100514.94;;;19.62;51.59
7264;BME280;3673;52.480;13.348;2023-08-08T07:08:49;100503.88;;;19.73;51.36
7264;BME280;3673;52.480;13.348;2023-08-08T07:11:16;100514.84;;;19.43;51.80
7264;BME280;3673;52.480;13.348;2023-08-08T07:13:43;100503.50;;;20.02;51.00
7264;BME280;3673;52.480;13.348;2023-08-08T07:16:09;100504.31;;;20.04;50.51
7264;BME280;3673;52.480;13.348;2023-08-08T07:18:36;100511.47;;;20.02;50.71
7264;BME280;3673;52.480;13.348;2023-08-08T07:21:03;100510.22;;;19.90;51.05
7264;BME280;3673;52.480;13.348;2023-08-08T07:23:31;100508.47;;;19.89;50.87
7264;BME280;3673;52.480;13.348;2023-08-08T07:25:59;100511.41;;;19.62;51.62
7264;BME280;3673;52.480;13.348;2023-08-08T07:28:26;100518.75;;;19.77;50.96
7264;BME280;3673;52.480;13.348;2023-08-08T07:30:53;100508.22;;;19.95;50.41
7264;BME280;3673;52.480;13.348;2023-08-08T07:33:19;100494.59;;;20.23;49.79
7264;BME280;3673;52.480;13.348;2023-08-08T07:35:46;100508.66;;;20.25;49.94
7264;BME280;3673;52.480;13.348;2023-08-08T07:38:13;100502.91;;;20.36;49.42
7264;BME280;3673;52.480;13.348;2023-08-08T07:40:41;100518.25;;;20.29;49.44
7264;BME280;3673;52.480;13.348;2023-08-08T07:43:09;100497.28;;;20.81;48.48
7264;BME280;3673;52.480;13.348;2023-08-08T07:45:36;100506.09;;;20.63;48.89
7264;BME280;3673;52.480;13.348;2023-08-08T07:48:03;100513.03;;;20.28;49.21
7264;BME280;3673;52.480;13.348;2023-08-08T07:50:30;100498.31;;;20.39;49.33
7264;BME280;3673;52.480;13.348;2023-08-08T07:52:57;100485.94;;;20.38;49.19
7264;BME280;3673;52.480;13.348;2023-08-08T07:55:24;100517.97;;;20.15;49.64
7264;BME280;3673;52.480;13.348;2023-08-08T07:57:51;100508.75;;;20.03;50.21
7264;BME280;3673;52.480;13.348;2023-08-08T08:00:20;100501.97;;;20.17;50.31
7264;BME280;3673;52.480;13.348;2023-08-08T08:02:47;100503.75;;;20.16;49.87
7264;BME280;3673;52.480;13.348;2023-08-08T08:05:14;100510.41;;;20.26;50.10
7264;BME280;3673;52.480;13.348;2023-08-08T08:07:41;100501.06;;;20.75;48.94
7264;BME280;3673;52.480;13.348;2023-08-08T08:10:11;100489.97;;;20.28;49.32
7264;BME280;3673;52.480;13.348;2023-08-08T08:12:39;100498.13;;;20.44;49.26
7264;BME280;3673;52.480;13.348;2023-08-08T08:15:08;100489.22;;;20.64;48.98
7264;BME280;3673;52.480;13.348;2023-08-08T08:17:37;100503.09;;;20.89;48.11
7264;BME280;3673;52.480;13.348;2023-08-08T08:20:05;100494.41;;;20.85;48.17
7264;BME280;3673;52.480;13.348;2023-08-08T08:22:36;100496.97;;;21.05;47.91
7264;BME280;3673;52.480;13.348;2023-08-08T08:25:05;100493.50;;;21.41;47.02
7264;BME280;3673;52.480;13.348;2023-08-08T08:27:33;100504.22;;;21.39;46.92
7264;BME280;3673;52.480;13.348;2023-08-08T08:30:00;100494.06;;;21.47;46.85
7264;BME280;3673;52.480;13.348;2023-08-08T08:32:26;100499.66;;;21.60;46.33
7264;BME280;3673;52.480;13.348;2023-08-08T08:34:54;100496.75;;;21.29;47.17
7264;BME280;3673;52.480;13.348;2023-08-08T08:37:21;100498.44;;;21.31;46.64
7264;BME280;3673;52.480;13.348;2023-08-08T08:39:48;100500.19;;;21.14;46.98
7264;BME280;3673;52.480;13.348;2023-08-08T08:42:15;100488.22;;;21.58;45.79
7264;BME280;3673;52.480;13.348;2023-08-08T08:44:42;100495.38;;;21.39;46.42
7264;BME280;3673;52.480;13.348;2023-08-08T08:47:12;100494.50;;;21.38;46.61
7264;BME280;3673;52.480;13.348;2023-08-08T08:49:41;100499.97;;;21.18;46.89
7264;BME280;3673;52.480;13.348;2023-08-08T08:52:10;100490.81;;;21.24;46.87
7264;BME280;3673;52.480;13.348;2023-08-08T08:54:38;100492.28;;;21.48;46.44
7264;BME280;3673;52.480;13.348;2023-08-08T08:57:05;100488.44;;;21.53;46.49
7264;BME280;3673;52.480;13.348;2023-08-08T08:59:32;100486.09;;;21.47;46.49
7264;BME280;3673;52.480;13.348;2023-08-08T09:01:59;100488.47;;;21.88;45.97
7264;BME280;3673;52.480;13.348;2023-08-08T09:04:28;100484.81;;;21.90;45.37
7264;BME280;3673;52.480;13.348;2023-08-08T09:06:55;100483.13;;;21.71;45.83
7264;BME280;3673;52.480;13.348;2023-08-08T09:09:24;100496.84;;;21.80;46.05
7264;BME280;3673;52.480;13.348;2023-08-08T09:11:52;100483.22;;;22.03;45.31
7264;BME280;3673;52.480;13.348;2023-08-08T09:14:22;100480.06;;;22.13;45.19
7264;BME280;3673;52.480;13.348;2023-08-08T09:16:51;100490.66;;;21.80;45.64
7264;BME280;3673;52.480;13.348;2023-08-08T09:19:19;100473.28;;;22.07;44.47
7264;BME280;3673;52.480;13.348;2023-08-08T09:21:46;100483.22;;;22.03;44.80
7264;BME280;3673;52.480;13.348;2023-08-08T09:24:14;100472.88;;;22.63;44.16
7264;BME280;3673;52.480;13.348;2023-08-08T09:26:42;100478.97;;;22.49;43.67
7264;BME280;3673;52.480;13.348;2023-08-08T09:29:11;100462.81;;;21.85;44.21
7264;BME280;3673;52.480;13.348;2023-08-08T09:31:39;100460.34;;;22.32;43.64
7264;BME280;3673;52.480;13.348;2023-08-08T09:34:06;100463.06;;;22.81;42.60
7264;BME280;3673;52.480;13.348;2023-08-08T09:36:34;100461.19;;;22.66;43.04
7264;BME280;3673;52.480;13.348;2023-08-08T09:39:03;100457.06;;;22.60;42.68
7264;BME280;3673;52.480;13.348;2023-08-08T09:41:31;100453.41;;;22.78;42.40
7264;BME280;3673;52.480;13.348;2023-08-08T09:43:59;100458.22;;;23.03;41.86
7264;BME280;3673;52.480;13.348;2023-08-08T09:46:30;100450.38;;;23.00;41.21
7264;BME280;3673;52.480;13.348;2023-08-08T09:48:58;100447.78;;;23.30;41.13
7264;BME280;3673;52.480;13.348;2023-08-08T09:51:25;100441.19;;;23.35;40.78
7264;BME280;3673;52.480;13.348;2023-08-08T09:53:53;100441.00;;;22.62;41.87
7264;BME280;3673;52.480;13.348;2023-08-08T09:56:20;100434.84;;;22.59;42.19
7264;BME280;3673;52.480;13.348;2023-08-08T09:58:48;100443.34;;;22.68;42.28
7264;BME280;3673;52.480;13.348;2023-08-08T10:01:16;100444.28;;;22.01;44.23
7264;BME280;3673;52.480;13.348;2023-08-08T10:03:45;100452.31;;;21.82;44.83
7264;BME280;3673;52.480;13.348;2023-08-08T10:06:13;100451.34;;;21.85;44.05
7264;BME280;3673;52.480;13.348;2023-08-08T10:08:40;100452.91;;;21.19;45.75
7264;BME280;3673;52.480;13.348;2023-08-08T10:11:09;100441.06;;;21.77;44.55
7264;BME280;3673;52.480;13.348;2023-08-08T10:13:37;100451.81;;;21.93;43.88
7264;BME280;3673;52.480;13.348;2023-08-08T10:16:08;100430.84;;;22.20;43.65
7264;BME280;3673;52.480;13.348;2023-08-08T10:18:36;100437.63;;;22.25;43.48
7264;BME280;3673;52.480;13.348;2023-08-08T10:21:04;100441.16;;;22.26;43.51
7264;BME280;3673;52.480;13.348;2023-08-08T10:23:36;100437.69;;;22.56;43.08
7264;BME280;3673;52.480;13.348;2023-08-08T10:26:03;100437.59;;;23.36;41.74
7264;BME280;3673;52.480;13.348;2023-08-08T10:28:32;100437.13;;;24.03;40.02
7264;BME280;3673;52.480;13.348;2023-08-08T10:31:01;100424.88;;;24.15;38.84
7264;BME280;3673;52.480;13.348;2023-08-08T10:33:42;100413.44;;;24.68;37.39
7264;BME280;3673;52.480;13.348;2023-08-08T10:36:10;100426.38;;;24.47;37.04
7264;BME280;3673;52.480;13.348;2023-08-08T10:38:43;100426.66;;;24.57;37.22
7264;BME280;3673;52.480;13.348;2023-08-08T10:41:11;100411.91;;;24.64;37.39
7264;BME280;3673;52.480;13.348;2023-08-08T10:43:48;100428.44;;;24.00;37.95
7264;BME280;3673;52.480;13.348;2023-08-08T10:46:23;100438.75;;;23.62;38.87
7264;BME280;3673;52.480;13.348;2023-08-08T10:48:54;100446.50;;;23.21;41.52
7264;BME280;3673;52.480;13.348;2023-08-08T10:51:21;100434.56;;;22.81;45.55
7264;BME280;3673;52.480;13.348;2023-08-08T10:53:51;100441.16;;;22.26;46.57
7264;BME280;3673;52.480;13.348;2023-08-08T10:56:19;100423.69;;;21.70;45.48
7264;BME280;3673;52.480;13.348;2023-08-08T10:58:48;100421.25;;;22.00;46.16
7264;BME280;3673;52.480;13.348;2023-08-08T11:01:15;100420.66;;;22.43;44.97
7264;BME280;3673;52.480;13.348;2023-08-08T11:03:44;100424.50;;;22.86;43.59
7264;BME280;3673;52.480;13.348;2023-08-08T11:06:16;100418.66;;;24.15;40.81
7264;BME280;3673;52.480;13.348;2023-08-08T11:08:43;100425.41;;;25.03;39.01
7264;BME280;3673;52.480;13.348;2023-08-08T11:11:10;100425.34;;;26.09;37.14
7264;BME280;3673;52.480;13.348;2023-08-08T11:13:38;100428.03;;;25.84;35.75
7264;BME280;3673;52.480;13.348;2023-08-08T11:16:05;100416.44;;;25.04;36.70
7264;BME280;3673;52.480;13.348;2023-08-08T11:18:31;100416.31;;;24.65;36.98
7264;BME280;3673;52.480;13.348;2023-08-08T11:20:58;100424.97;;;24.97;36.67
7264;BME280;3673;52.480;13.348;2023-08-08T11:23:26;100446.44;;;23.82;41.50
7264;BME280;3673;52.480;13.348;2023-08-08T11:25:55;100459.59;;;22.30;47.55
7264;BME280;3673;52.480;13.348;2023-08-08T11:28:21;100454.66;;;21.88;46.50
7264;BME280;3673;52.480;13.348;2023-08-08T11:30:48;100449.56;;;20.78;47.44
7264;BME280;3673;52.480;13.348;2023-08-08T11:33:16;100459.78;;;20.87;48.08
7264;BME280;3673;52.480;13.348;2023-08-08T11:35:44;100455.41;;;20.67;48.86
7264;BME280;3673;52.480;13.348;2023-08-08T11:38:14;100459.28;;;20.60;50.52
7264;BME280;3673;52.480;13.348;2023-08-08T11:40:43;100460.25;;;20.39;49.36
7264;BME280;3673;52.480;13.348;2023-08-08T11:43:11;100447.28;;;20.70;47.99
7264;BME280;3673;52.480;13.348;2023-08-08T11:45:39;100442.53;;;21.48;47.71
7264;BME280;3673;52.480;13.348;2023-08-08T11:48:08;100445.66;;;22.89;44.64
7264;BME280;3673;52.480;13.348;2023-08-08T11:50:37;100435.00;;;24.79;41.54
7264;BME280;3673;52.480;13.348;2023-08-08T11:53:06;100432.94;;;25.77;39.54
7264;BME280;3673;52.480;13.348;2023-08-08T11:55:36;100433.94;;;26.14;38.46
7264;BME280;3673;52.480;13.348;2023-08-08T11:58:04;100437.88;;;26.59;38.05
7264;BME280;3673;52.480;13.348;2023-08-08T12:00:32;100425.72;;;27.15;36.47
7264;BME280;3673;52.480;13.348;2023-08-08T12:03:01;100417.28;;;28.24;35.02
7264;BME280;3673;52.480;13.348;2023-08-08T12:05:29;100421.13;;;27.28;36.04
7264;BME280;3673;52.480;13.348;2023-08-08T12:07:58;100410.41;;;28.20;34.23
7264;BME280;3673;52.480;13.348;2023-08-08T12:10:25;100416.91;;;28.40;32.49
7264;BME280;3673;52.480;13.348;2023-08-08T12:12:54;100410.56;;;28.52;31.31
7264;BME280;3673;52.480;13.348;2023-08-08T12:15:24;100408.22;;;28.14;31.74
7264;BME280;3673;52.480;13.348;2023-08-08T12:17:54;100414.84;;;28.21;31.71
7264;BME280;3673;52.480;13.348;2023-08-08T12:20:20;100403.59;;;29.14;30.98
7264;BME280;3673;52.480;13.348;2023-08-08T12:22:47;100403.56;;;30.29;28.53
7264;BME280;3673;52.480;13.348;2023-08-08T12:25:14;100405.50;;;29.35;30.04
7264;BME280;3673;52.480;13.348;2023-08-08T12:27:40;100409.75;;;29.05;30.18
7264;BME280;3673;52.480;13.348;2023-08-08T12:30:08;100405.06;;;28.31;31.71
7264;BME280;3673;52.480;13.348;2023-08-08T12:32:36;100429.44;;;26.89;33.81
7264;BME280;3673;52.480;13.348;2023-08-08T12:35:04;100432.63;;;24.89;39.61
7264;BME280;3673;52.480;13.348;2023-08-08T12:37:32;100414.31;;;23.98;49.11
7264;BME280;3673;52.480;13.348;2023-08-08T12:39:58;100423.38;;;22.75;50.15
7264;BME280;3673;52.480;13.348;2023-08-08T12:42:25;100414.13;;;23.27;50.49
7264;BME280;3673;52.480;13.348;2023-08-08T12:44:53;100408.50;;;24.48;49.01
7264;BME280;3673;52.480;13.348;2023-08-08T12:47:20;100409.53;;;25.54;43.32
7264;BME280;3673;52.480;13.348;2023-08-08T12:49:48;100396.53;;;25.08;42.53
7264;BME280;3673;52.480;13.348;2023-08-08T12:52:15;100404.13;;;25.81;39.78
7264;BME280;3673;52.480;13.348;2023-08-08T12:54:42;100410.50;;;25.26;40.21
7264;BME280;3673;52.480;13.348;2023-08-08T12:57:09;100411.38;;;24.17;42.77
7264;BME280;3673;52.480;13.348;2023-08-08T12:59:35;100429.91;;;23.76;45.31
7264;BME280;3673;52.480;13.348;2023-08-08T13:02:02;100429.22;;;22.97;46.17